Virtual LH

Virtual LH. There's no better way to fly
Since 2013.



 METAR AND TAF INFORMATION
METAR FOR EGPH
ADDS - METARS form results

(1254 UTC 23 May 2018)
Data provider http://aviationweather.gov/adds/metars/
 
METAR text: EGPH 231250Z 05011KT 9999 FEW013 BKN024 12/08 Q1028
Conditions at: EGPH (EDINBURGH AIRPOR, GB) observed 1250 UTC 23 May 2018
Temperature: 12.0°C (54°F)
Dewpoint: 8.0°C (46°F) [RH = 76%]
Pressure (altimeter): 30.35 inches Hg (1028.0 mb)
Winds: from the NE (50 degrees) at 13 MPH (11 knots; 5.7 m/s)
Visibility: 6 or more miles (10+ km)
Ceiling: 2400 feet AGL
Clouds: few clouds at 1300 feet AGL
broken clouds at 2400 feet AGL
Weather: no significant weather observed at this time

METAR text: EGPH 231220Z 05011KT 9999 BKN025 11/08 Q1028
Conditions at: EGPH (EDINBURGH AIRPOR, GB) observed 1220 UTC 23 May 2018
Temperature: 11.0°C (52°F)
Dewpoint: 8.0°C (46°F) [RH = 82%]
Pressure (altimeter): 30.35 inches Hg (1028.0 mb)
Winds: from the NE (50 degrees) at 13 MPH (11 knots; 5.7 m/s)
Visibility: 6 or more miles (10+ km)
Ceiling: 2500 feet AGL
Clouds: broken clouds at 2500 feet AGL
Weather: no significant weather observed at this time

Forecast for: EGPH (EDINBURGH AIRPOR, GB)
Text: TAF EGPH 231054Z 2312/2412 06009KT 9999 SCT018
Forecast period: 1200 to 1900 UTC 23 May 2018
Forecast type: FROM: standard forecast or significant change
Winds: from the ENE (60 degrees) at 10 MPH (9 knots; 4.7 m/s)
Visibility: 6 or more miles (10+ km)
Clouds: scattered clouds at 1800 feet AGL
Weather: no significant weather forecast for this period
Forecast for: EGPH (EDINBURGH AIRPOR, GB)
Text: TAF EGPH 231054Z 2312/2412 06009KT 9999 SCT018
Forecast period: 1200 to 1900 UTC 23 May 2018
Forecast type: FROM: standard forecast or significant change
Winds: from the ENE (60 degrees) at 10 MPH (9 knots; 4.7 m/s)
Visibility: 6 or more miles (10+ km)
Clouds: scattered clouds at 1800 feet AGL
Weather: no significant weather forecast for this period
Forecast for: EGPH (EDINBURGH AIRPOR, GB)
Text: TAF EGPH 231054Z 2312/2412 06009KT 9999 SCT018
Forecast period: 1200 to 1300 UTC 23 May 2018
Forecast type: TEMPORARY: The following changes expected for less than half the time period
Ceiling: 1400 feet AGL
Clouds: broken clouds at 1400 feet AGL
Weather: no significant weather forecast for this period
Forecast for: EGPH (EDINBURGH AIRPOR, GB)
Text: TAF EGPH 231054Z 2312/2412 06009KT 9999 SCT018
Forecast period: 1200 to 1300 UTC 23 May 2018
Forecast type: TEMPORARY: The following changes expected for less than half the time period
Ceiling: 1400 feet AGL
Clouds: broken clouds at 1400 feet AGL
Weather: no significant weather forecast for this period
Forecast for: EGPH (EDINBURGH AIRPOR, GB)
Text: TAF EGPH 231054Z 2312/2412 06009KT 9999 SCT018
Forecast period: 1900 UTC 23 May 2018 to 1200 UTC 24 May 2018
Forecast type: BECOMING: Conditions expected to become as follows by 2200 UTC 23 May 2018
Winds: from the ENE (60 degrees) at 10 MPH (9 knots; 4.7 m/s)
Visibility: 6 or more miles (10+ km)
Ceiling: 1200 feet AGL
Clouds: broken clouds at 1200 feet AGL
Weather: no significant weather forecast for this period
Forecast for: EGPH (EDINBURGH AIRPOR, GB)
Text: TAF EGPH 231054Z 2312/2412 06009KT 9999 SCT018
Forecast period: 1900 UTC 23 May 2018 to 1200 UTC 24 May 2018
Forecast type: BECOMING: Conditions expected to become as follows by 2200 UTC 23 May 2018
Winds: from the ENE (60 degrees) at 10 MPH (9 knots; 4.7 m/s)
Visibility: 6 or more miles (10+ km)
Ceiling: 1200 feet AGL
Clouds: broken clouds at 1200 feet AGL
Weather: no significant weather forecast for this period
Forecast for: EGPH (EDINBURGH AIRPOR, GB)
Text: TAF EGPH 231054Z 2312/2412 06009KT 9999 SCT018
Forecast period: 2000 UTC 23 May 2018 to 0900 UTC 24 May 2018
Forecast type: TEMPORARY: The following changes expected for less than half the time period
Visibility: 3 miles (5 km)
Ceiling: 400 feet AGL
Clouds: broken clouds at 400 feet AGL
Weather: BR  (mist)
Forecast for: EGPH (EDINBURGH AIRPOR, GB)
Text: TAF EGPH 231054Z 2312/2412 06009KT 9999 SCT018
Forecast period: 2000 UTC 23 May 2018 to 0900 UTC 24 May 2018
Forecast type: TEMPORARY: The following changes expected for less than half the time period
Visibility: 3 miles (5 km)
Ceiling: 400 feet AGL
Clouds: broken clouds at 400 feet AGL
Weather: BR  (mist)
Forecast for: EGPH (EDINBURGH AIRPOR, GB)
Text: TAF EGPH 231054Z 2312/2412 06009KT 9999 SCT018
Forecast period: 0900 to 1200 UTC 24 May 2018
Forecast type: TEMPORARY: The following changes expected for less than half the time period
Clouds: few clouds at 1200 feet AGL
Weather: no significant weather forecast for this period
Forecast for: EGPH (EDINBURGH AIRPOR, GB)
Text: TAF EGPH 231054Z 2312/2412 06009KT 9999 SCT018
Forecast period: 0900 to 1200 UTC 24 May 2018
Forecast type: TEMPORARY: The following changes expected for less than half the time period
Clouds: few clouds at 1200 feet AGL
Weather: no significant weather forecast for this period

 AIRPORT MAP

 RUNWAY INFORMATION
Runway 06 Runway length 8400 ft Runway width 150 ft
Runway elevation 110 ft Runway displaced threshold 700 ft Runway heading 59
Runway 24 Runway length 8400 ft Runway width 150 ft
Runway elevation 100 ft Runway displaced threshold 700 ft Runway heading 239
Runway 08 Runway length 2621 ft Runway width 150 ft
Runway elevation 100 ft Runway displaced threshold 0 ft Runway heading 70
Runway 26 Runway length 2621 ft Runway width 150 ft
Runway elevation 110 ft Runway displaced threshold 0 ft Runway heading 250
Runway 12 Runway length 5730 ft Runway width 150 ft
Runway elevation 99 ft Runway displaced threshold 0 ft Runway heading 119
Runway 30 Runway length 5730 ft Runway width 150 ft
Runway elevation 134 ft Runway displaced threshold 204 ft Runway heading 299

 AIRPORT FREQUENCIES
Type APP Name APP Frequency 121.2 MHZ
Type ATIS Name ATIS Frequency 131.35 MHZ
Type GND Name GND Frequency 121.75 MHZ
Type TWR Name TWR Frequency 118.7 MHZ

 AIRPORT NEAR NAVIGATION AIDS
Type NDB Name Edinburgh Frequency 341 KHZ
Type NDB Name Edinburgh Frequency 368 KHZ